Time;durP1;ratioP1;P1;durP2;ratioP2;P2;SDS_P1;SDS_P2;PMS_P1;PMS_P2;Temp;Humidity;BMP_temperature;BMP_pressure;BME280_temperature;BME280_humidity;BME280_pressure;Samples;Min_cycle;Max_cycle;Signal;HPM_P1;HPM_P2
2022/05/03 00:02:22;;;;;;;7.22;5.05;;;;;;;10.36;58.34;100503.86;1779919;79;21784;-53
2022/05/03 00:05:07;;;;;;;8.20;4.90;;;;;;;10.27;58.11;100484.80;1804259;79;21004;-52
2022/05/03 00:07:45;;;;;;;7.75;4.55;;;;;;;10.22;58.19;100491.27;1772691;79;21547;-53
2022/05/03 00:10:15;;;;;;;9.33;5.20;;;;;;;10.16;58.39;100498.78;1773086;80;21039;-53
2022/05/03 00:12:54;;;;;;;8.38;4.72;;;;;;;10.09;58.67;100503.67;1769278;80;21638;-53
2022/05/03 00:15:21;;;;;;;10.93;4.42;;;;;;;10.04;58.63;100509.76;1769055;79;21151;-53
2022/05/03 00:17:48;;;;;;;8.10;4.62;;;;;;;10.01;58.43;100502.10;1736491;80;21091;-53
2022/05/03 00:20:15;;;;;;;7.55;4.47;;;;;;;9.99;58.18;100518.47;1766257;79;21082;-52
2022/05/03 00:22:42;;;;;;;7.60;4.53;;;;;;;9.95;58.07;100515.70;1754390;79;21026;-52
2022/05/03 00:25:09;;;;;;;9.93;4.40;;;;;;;9.91;57.80;100507.70;1762612;79;21073;-52
2022/05/03 00:27:37;;;;;;;7.67;4.83;;;;;;;9.86;57.50;100508.86;1770715;80;21178;-53
2022/05/03 00:30:06;;;;;;;7.35;4.58;;;;;;;9.81;58.00;100528.08;1773036;80;21084;-54
2022/05/03 00:32:34;;;;;;;7.20;4.28;;;;;;;9.75;56.21;100519.36;1771144;80;21034;-54
2022/05/03 00:35:00;;;;;;;7.10;4.55;;;;;;;9.73;56.36;100508.10;1770416;79;21066;-53
2022/05/03 00:37:28;;;;;;;9.13;4.67;;;;;;;9.73;56.43;100510.73;1770394;79;21062;-53
2022/05/03 00:39:54;;;;;;;8.50;4.53;;;;;;;9.71;55.97;100507.39;1756971;79;21121;-53
2022/05/03 00:42:26;;;;;;;6.67;4.10;;;;;;;9.67;55.84;100505.95;1763214;79;20976;-53
2022/05/03 00:45:16;;;;;;;7.62;4.20;;;;;;;9.65;56.22;100507.38;1775236;79;21047;-53
2022/05/03 00:48:01;;;;;;;6.30;3.70;;;;;;;9.64;56.36;100504.86;1755253;80;21059;-53
2022/05/03 00:50:46;;;;;;;10.98;4.45;;;;;;;9.63;56.12;100492.66;1728815;82;21035;-54
2022/05/03 00:53:19;;;;;;;7.92;4.03;;;;;;;9.61;55.88;100494.09;1776254;79;21148;-53
2022/05/03 00:56:35;;;;;;;8.15;4.10;;;;;;;9.59;55.17;100488.60;1799000;79;21026;-53
2022/05/03 00:59:29;;;;;;;7.05;4.05;;;;;;;9.57;54.88;100485.26;1704200;82;21086;-53
2022/05/03 01:02:05;;;;;;;8.03;4.08;;;;;;;9.54;54.99;100481.54;1744110;80;21740;-53
2022/05/03 01:04:59;;;;;;;6.72;4.03;;;;;;;9.54;55.04;100475.80;1742626;82;21043;-53
2022/05/03 01:07:33;;;;;;;8.93;4.47;;;;;;;9.55;54.96;100477.48;1758973;79;22239;-53
2022/05/03 01:10:19;;;;;;;8.30;4.05;;;;;;;9.57;54.53;100465.55;1750771;80;21042;-53
2022/05/03 01:13:24;;;;;;;9.23;4.55;;;;;;;9.59;54.31;100477.61;1753231;79;21047;-53
2022/05/03 01:15:56;;;;;;;6.62;3.83;;;;;;;9.62;54.33;100472.13;1773352;80;21110;-52
2022/05/03 01:18:30;;;;;;;7.45;4.28;;;;;;;9.64;54.22;100474.64;1750169;79;21117;-52
2022/05/03 01:21:18;;;;;;;7.90;4.05;;;;;;;9.64;54.28;100461.52;1759479;80;21789;-52
2022/05/03 01:23:53;;;;;;;6.65;3.98;;;;;;;9.67;54.59;100461.28;1755845;80;21050;-52
2022/05/03 01:26:57;;;;;;;9.00;4.97;;;;;;;9.71;54.64;100463.20;1768616;80;21126;-54
2022/05/03 01:29:34;;;;;;;6.85;4.10;;;;;;;9.72;54.44;100464.41;1756668;79;21548;-53
2022/05/03 01:32:05;;;;;;;7.65;4.08;;;;;;;9.75;54.31;100474.69;1757979;80;21177;-53
2022/05/03 01:34:32;;;;;;;6.62;4.00;;;;;;;9.77;54.21;100475.89;1742039;81;21162;-53
2022/05/03 01:37:36;;;;;;;7.65;4.05;;;;;;;9.79;54.37;100468.72;1743155;80;21047;-54
2022/05/03 01:40:22;;;;;;;7.25;3.62;;;;;;;9.81;54.44;100465.01;1747029;80;21004;-54
2022/05/03 01:43:11;;;;;;;7.42;4.17;;;;;;;9.81;54.12;100464.18;1710822;81;21129;-53
2022/05/03 01:46:12;;;;;;;8.80;4.78;;;;;;;9.82;54.26;100466.70;1780434;79;21020;-53
2022/05/03 01:52:07;;;;;;;6.50;3.95;;;;;;;9.88;53.87;100469.33;1736158;82;21039;-53
2022/05/03 01:55:10;;;;;;;7.95;4.17;;;;;;;9.90;53.65;100467.89;1744083;80;21049;-54
2022/05/03 01:58:01;;;;;;;6.83;4.08;;;;;;;9.94;53.61;100460.16;1746583;80;21556;-53
2022/05/03 02:00:28;;;;;;;8.05;4.12;;;;;;;9.95;53.49;100457.87;1732864;79;20992;-53
2022/05/03 02:03:25;;;;;;;7.47;3.62;;;;;;;9.98;53.35;100450.58;1690585;82;21153;-53
2022/05/03 02:06:13;;;;;;;8.50;3.77;;;;;;;10.03;53.10;100454.18;1741779;82;21066;-53
2022/05/03 02:08:52;;;;;;;6.65;3.85;;;;;;;10.04;52.50;100451.44;1728891;81;21070;-53
2022/05/03 02:12:13;;;;;;;6.78;3.45;;;;;;;10.06;52.04;100451.32;1781845;79;21015;-54
2022/05/03 02:15:07;;;;;;;8.20;4.40;;;;;;;10.06;51.81;100440.80;1764122;80;21046;-54
2022/05/03 02:17:50;;;;;;;8.18;3.50;;;;;;;10.08;51.38;100442.00;1761301;79;21145;-54
2022/05/03 02:20:46;;;;;;;11.35;4.35;;;;;;;10.08;51.21;100438.89;1767065;78;20996;-53
2022/05/03 02:23:33;;;;;;;10.40;3.52;;;;;;;10.10;51.17;100438.77;1780303;79;21115;-53
2022/05/03 02:26:45;;;;;;;5.87;3.27;;;;;;;10.11;51.25;100439.97;1772955;80;21600;-53
2022/05/03 02:29:18;;;;;;;8.53;4.95;;;;;;;10.13;51.22;100441.17;1746577;80;21070;-53
2022/05/03 02:32:03;;;;;;;7.80;3.30;;;;;;;10.11;50.96;100436.52;1746287;80;21870;-53
2022/05/03 02:34:48;;;;;;;;;;;;;;;10.11;50.87;100441.28;1759427;79;21086;-55
2022/05/03 02:37:32;;;;;;;7.72;4.28;;;;;;;10.10;50.91;100443.55;1772009;79;20223;-53
2022/05/03 02:40:07;;;;;;;7.83;3.75;;;;;;;10.06;51.00;100443.92;1742371;80;21043;-54
2022/05/03 02:42:35;;;;;;;8.05;4.25;;;;;;;10.07;51.18;100446.89;1753337;79;21086;-54
2022/05/03 02:45:03;;;;;;;9.18;4.53;;;;;;;10.07;51.26;100445.12;1737534;80;21143;-55
2022/05/03 02:47:46;;;;;;;9.48;4.03;;;;;;;10.08;51.40;100449.41;1747315;79;21506;-53
2022/05/03 02:50:22;;;;;;;8.50;4.30;;;;;;;10.07;51.33;100447.75;1769894;80;21071;-53
2022/05/03 02:53:09;;;;;;;9.23;4.20;;;;;;;10.07;51.35;100446.44;1758861;79;21139;-52
2022/05/03 02:56:04;;;;;;;7.85;4.12;;;;;;;10.05;51.44;100445.69;1795363;79;21110;-55
2022/05/03 02:58:59;;;;;;;8.43;4.50;;;;;;;10.07;51.40;100443.80;1786842;79;21806;-53
2022/05/03 03:01:49;;;;;;;7.15;4.22;;;;;;;10.08;51.36;100446.77;1749246;80;22320;-53
2022/05/03 03:04:36;;;;;;;8.48;4.17;;;;;;;10.12;51.37;100444.74;1748174;80;21086;-53
2022/05/03 03:07:04;;;;;;;7.62;4.45;;;;;;;10.14;51.24;100445.48;1781938;79;21027;-54
2022/05/03 03:09:51;;;;;;;7.35;4.22;;;;;;;10.15;51.21;100449.77;1704496;82;21078;-54
2022/05/03 03:12:26;;;;;;;7.72;4.10;;;;;;;10.19;51.35;100444.16;1766467;79;21755;-53
2022/05/03 03:15:09;;;;;;;7.35;4.53;;;;;;;10.25;51.46;100454.67;1751956;80;21073;-54
2022/05/03 03:17:41;;;;;;;7.65;4.10;;;;;;;10.30;51.28;100454.32;1756350;79;21602;-54
2022/05/03 03:20:12;;;;;;;10.38;4.60;;;;;;;10.33;51.36;100450.17;1761728;80;21009;-53
2022/05/03 03:22:42;;;;;;;8.08;4.67;;;;;;;10.35;51.16;100453.52;1759134;80;21034;-53
2022/05/03 03:25:18;;;;;;;8.93;4.28;;;;;;;10.39;51.32;100451.02;1759892;80;21079;-53
2022/05/03 03:27:49;;;;;;;7.42;4.20;;;;;;;10.44;51.42;100455.90;1760145;79;21553;-53
2022/05/03 03:30:16;;;;;;;8.68;4.03;;;;;;;10.46;51.66;100448.75;1759063;79;21029;-54
2022/05/03 03:32:50;;;;;;;10.85;4.03;;;;;;;10.51;51.75;100451.86;1762581;80;21091;-54
2022/05/03 03:35:18;;;;;;;9.48;4.08;;;;;;;10.54;51.88;100456.39;1754894;80;21071;-53
2022/05/03 03:37:50;;;;;;;6.92;3.98;;;;;;;10.61;51.59;100455.43;1760300;79;21308;-53
2022/05/03 03:40:18;;;;;;;8.33;3.75;;;;;;;10.66;51.30;100462.48;1761938;80;21023;-53
2022/05/03 03:42:46;;;;;;;10.25;4.15;;;;;;;10.73;51.10;100454.94;1768771;79;21035;-52
2022/05/03 03:45:15;;;;;;;7.58;3.77;;;;;;;10.76;50.97;100454.70;1760383;79;21031;-52
2022/05/03 03:47:43;;;;;;;8.08;3.75;;;;;;;10.81;51.06;100454.30;1756832;79;21118;-53
2022/05/03 03:50:10;;;;;;;8.88;3.85;;;;;;;10.85;51.16;100453.12;1755688;80;21105;-53
2022/05/03 03:52:39;;;;;;;9.65;4.42;;;;;;;10.88;51.08;100457.66;1755438;79;21044;-53
2022/05/03 03:55:07;;;;;;;7.70;3.90;;;;;;;10.92;51.21;100455.12;1759262;80;21587;-52
2022/05/03 03:57:36;;;;;;;7.60;3.80;;;;;;;10.96;50.98;100453.92;1742734;80;21067;-54
2022/05/03 04:00:13;;;;;;;7.20;3.58;;;;;;;11.02;50.84;100462.29;1762544;79;21046;-52
2022/05/03 04:02:42;;;;;;;9.00;3.80;;;;;;;11.09;51.16;100461.66;1794824;79;21486;-53
2022/05/03 04:05:17;;;;;;;6.87;3.77;;;;;;;11.16;50.81;100454.09;1768109;80;21026;-53
2022/05/03 04:07:44;;;;;;;7.33;4.05;;;;;;;11.26;50.54;100455.50;1780198;80;21492;-54
2022/05/03 04:10:11;;;;;;;10.75;3.67;;;;;;;11.32;49.95;100457.16;1758172;80;21541;-53
2022/05/03 04:12:37;;;;;;;7.40;3.58;;;;;;;11.40;49.88;100460.48;1770752;79;21516;-53
2022/05/03 04:15:06;;;;;;;8.15;3.92;;;;;;;11.48;49.70;100462.47;1767048;80;21144;-53
2022/05/03 04:17:32;;;;;;;8.33;4.30;;;;;;;11.58;49.10;100462.55;1773272;79;21046;-53
2022/05/03 04:31:32;;;;;;;7.90;4.03;;;;;;;13.44;45.38;100469.42;1858465;75;22631;-54
2022/05/03 04:34:00;;;;;;;8.83;4.03;;;;;;;13.63;44.68;100472.53;1818452;78;20927;-54
2022/05/03 04:36:27;;;;;;;7.47;4.40;;;;;;;13.68;44.85;100470.30;1814118;77;21840;-54
2022/05/03 04:38:53;;;;;;;9.05;4.42;;;;;;;13.69;44.74;100466.20;1819751;77;21529;-54
2022/05/03 04:41:23;;;;;;;7.28;3.47;;;;;;;13.72;44.68;100468.56;1817185;77;21069;-54
2022/05/03 04:43:50;;;;;;;6.30;3.40;;;;;;;13.74;44.66;100462.64;1817690;78;20995;-54
2022/05/03 04:46:17;;;;;;;8.80;3.77;;;;;;;13.78;44.91;100461.86;1817268;77;21077;-54
2022/05/03 04:48:44;;;;;;;7.55;3.75;;;;;;;13.85;44.47;100463.45;1782164;79;21134;-53
2022/05/03 04:51:23;;;;;;;7.10;3.30;;;;;;;13.88;44.63;100460.03;1769985;80;21122;-54
2022/05/03 04:53:49;;;;;;;6.17;3.25;;;;;;;13.92;44.15;100454.81;1771452;80;20981;-54
2022/05/03 04:56:22;;;;;;;8.05;3.52;;;;;;;13.99;44.18;100457.73;1771369;80;21104;-54
2022/05/03 04:58:50;;;;;;;6.95;3.22;;;;;;;14.01;43.91;100454.94;1767211;80;21110;-54
2022/05/03 05:01:16;;;;;;;5.70;3.08;;;;;;;14.03;43.68;100449.02;1768047;80;21147;-54
2022/05/03 05:03:44;;;;;;;7.20;3.25;;;;;;;14.06;43.96;100450.05;1766998;80;20995;-55
2022/05/03 05:06:11;;;;;;;9.75;2.47;;;;;;;14.11;44.10;100448.62;1766965;80;21318;-53
2022/05/03 05:08:38;;;;;;;5.50;2.47;;;;;;;14.18;44.10;100447.56;1767118;79;21064;-54
2022/05/03 05:11:05;;;;;;;7.28;2.77;;;;;;;14.23;44.27;100446.64;1758009;80;21054;-54
2022/05/03 05:13:32;;;;;;;8.58;3.55;;;;;;;14.30;44.04;100441.59;1744721;82;21170;-54
2022/05/03 05:15:59;;;;;;;7.55;3.37;;;;;;;14.37;44.06;100439.20;1764247;80;21082;-54
2022/05/03 05:18:26;;;;;;;9.45;3.00;;;;;;;14.43;44.04;100442.10;1749569;80;21117;-54
2022/05/03 05:20:55;;;;;;;6.10;2.40;;;;;;;14.49;43.89;100433.58;1770868;80;21640;-54
2022/05/03 05:23:21;;;;;;;7.85;2.70;;;;;;;14.57;43.49;100427.53;1771866;80;21078;-55
2022/05/03 05:25:48;;;;;;;5.05;2.25;;;;;;;14.64;43.92;100427.34;1750009;80;21124;-54
2022/05/03 05:28:16;;;;;;;6.40;2.87;;;;;;;14.75;44.41;100428.11;1764980;80;21090;-54
2022/05/03 05:30:43;;;;;;;10.68;2.75;;;;;;;14.87;44.22;100422.94;1769389;80;21622;-54
2022/05/03 05:33:10;;;;;;;6.20;3.25;;;;;;;14.99;44.18;100421.72;1769330;80;21617;-53
2022/05/03 05:35:40;;;;;;;4.80;2.25;;;;;;;15.13;43.66;100415.55;1763402;80;21006;-54
2022/05/03 05:38:06;;;;;;;8.00;2.52;;;;;;;15.24;42.98;100422.78;1773266;80;21126;-56
2022/05/03 05:40:33;;;;;;;5.08;2.25;;;;;;;15.36;43.02;100416.75;1768387;80;21047;-54
2022/05/03 05:43:01;;;;;;;5.12;1.92;;;;;;;15.49;43.20;100419.02;1767676;80;21031;-54
2022/05/03 05:45:28;;;;;;;6.28;2.25;;;;;;;15.60;42.33;100423.23;1771026;79;21585;-54
2022/05/03 05:47:56;;;;;;;7.87;2.50;;;;;;;15.67;41.88;100426.09;1789954;78;21326;-55
2022/05/03 05:50:24;;;;;;;4.55;1.90;;;;;;;15.75;40.78;100426.16;1796536;78;21109;-52
2022/05/03 05:55:39;;;;;;;4.83;2.08;;;;;;;15.88;40.09;100426.61;1776694;78;21048;-53
2022/05/03 05:58:06;;;;;;;4.05;1.62;;;;;;;15.96;39.52;100421.86;1785584;79;21070;-53
2022/05/03 06:00:32;;;;;;;4.03;1.67;;;;;;;16.01;38.58;100420.06;1764127;80;21102;-53
2022/05/03 06:02:59;;;;;;;5.10;2.27;;;;;;;16.02;38.85;100416.41;1784911;80;21130;-54
2022/05/03 06:05:26;;;;;;;6.47;2.27;;;;;;;16.04;38.90;100420.58;1772668;79;21089;-53
2022/05/03 06:07:53;;;;;;;5.28;1.70;;;;;;;16.07;38.45;100424.73;1766681;79;21106;-52
2022/05/03 06:10:21;;;;;;;4.28;1.55;;;;;;;16.08;38.70;100412.63;1765411;80;21093;-53
2022/05/03 06:12:48;;;;;;;5.70;1.85;;;;;;;16.12;39.38;100418.45;1769652;80;21004;-53
2022/05/03 06:15:15;;;;;;;4.50;1.72;;;;;;;16.18;38.92;100413.84;1771830;80;21138;-53
2022/05/03 06:17:42;;;;;;;4.75;1.92;;;;;;;16.23;38.95;100412.05;1762813;80;21038;-53
2022/05/03 06:20:10;;;;;;;4.17;1.82;;;;;;;16.29;39.30;100419.36;1766992;80;21122;-53
2022/05/03 06:22:39;;;;;;;7.12;2.40;;;;;;;16.36;38.83;100417.75;1766595;80;21095;-53
2022/05/03 06:25:09;;;;;;;6.03;2.00;;;;;;;16.43;38.89;100415.28;1768847;80;21109;-54
2022/05/03 06:27:41;;;;;;;4.95;1.77;;;;;;;16.49;39.00;100416.80;1764384;80;21790;-53
2022/05/03 06:30:09;;;;;;;4.62;1.85;;;;;;;16.58;39.63;100420.82;1764092;80;21111;-53
2022/05/03 06:32:43;;;;;;;4.40;1.95;;;;;;;16.67;39.77;100417.18;1759081;81;22221;-54
2022/05/03 06:35:05;;;;;;;7.05;1.98;;;;;;;16.80;38.91;100414.89;1749868;81;21169;-53
2022/05/03 06:37:36;;;;;;;6.72;1.95;;;;;;;16.94;38.42;100413.95;1783847;79;21466;-53
2022/05/03 06:40:06;;;;;;;7.45;2.10;;;;;;;17.10;37.93;100419.30;1774006;80;21120;-53
2022/05/03 06:42:39;;;;;;;5.65;2.35;;;;;;;17.20;37.42;100409.34;1777401;79;21049;-53
2022/05/03 06:45:07;;;;;;;4.72;1.72;;;;;;;17.37;37.65;100408.02;1776323;80;21156;-53
2022/05/03 06:47:34;;;;;;;4.53;1.70;;;;;;;17.57;35.84;100418.64;1770903;80;22201;-52
2022/05/03 06:50:01;;;;;;;4.15;1.40;;;;;;;17.78;34.53;100411.44;1766011;80;21643;-53
2022/05/03 06:52:31;;;;;;;3.50;1.40;;;;;;;17.93;34.15;100408.95;1774268;80;21045;-53
2022/05/03 06:54:58;;;;;;;5.60;2.10;;;;;;;18.06;33.60;100407.61;1776908;80;21037;-53
2022/05/03 06:57:24;;;;;;;4.47;1.80;;;;;;;18.15;33.81;100407.38;1774377;80;21047;-53
2022/05/03 06:59:51;;;;;;;5.20;1.95;;;;;;;18.22;34.05;100396.05;1775838;80;21145;-53
2022/05/03 07:02:17;;;;;;;3.75;1.20;;;;;;;18.31;34.24;100409.17;1777644;80;21140;-53
2022/05/03 07:04:46;;;;;;;4.80;1.60;;;;;;;18.42;34.00;100408.46;1774174;80;21138;-54
2022/05/03 07:07:14;;;;;;;4.58;2.02;;;;;;;18.52;33.37;100414.41;1769608;80;21058;-53
2022/05/03 07:09:41;;;;;;;4.85;1.52;;;;;;;18.62;33.54;100409.69;1773375;80;21011;-53
2022/05/03 07:12:10;;;;;;;5.37;1.75;;;;;;;18.68;33.43;100398.33;1775674;79;21578;-53
2022/05/03 07:14:36;;;;;;;3.47;1.35;;;;;;;18.77;33.72;100400.95;1775646;80;21098;-55
2022/05/03 07:17:05;;;;;;;7.47;1.60;;;;;;;18.87;32.38;100398.92;1765764;80;21137;-53
2022/05/03 07:25:02;;;;;;;3.90;1.50;;;;;;;19.23;31.55;100392.50;1773004;80;21032;-53
2022/05/03 07:27:29;;;;;;;3.60;1.22;;;;;;;19.31;30.32;100394.24;1775482;80;21654;-53
2022/05/03 07:29:56;;;;;;;3.75;1.20;;;;;;;19.42;29.79;100405.02;1778093;80;21198;-53
2022/05/03 07:32:22;;;;;;;3.45;1.32;;;;;;;19.55;29.67;100402.56;1779989;79;21041;-53
2022/05/03 07:34:48;;;;;;;4.08;1.47;;;;;;;19.64;29.34;100404.13;1789348;78;21067;-53
2022/05/03 07:37:16;;;;;;;3.62;1.42;;;;;;;19.64;28.76;100390.78;1784415;79;20994;-54
2022/05/03 07:39:42;;;;;;;5.85;1.40;;;;;;;19.65;28.39;100390.27;1790480;78;21088;-53
2022/05/03 07:42:09;;;;;;;4.03;1.47;;;;;;;19.72;28.57;100395.22;1784907;79;21128;-53
2022/05/03 07:44:35;;;;;;;3.87;1.35;;;;;;;19.79;28.84;100382.82;1786336;80;21519;-53
2022/05/03 07:47:02;;;;;;;3.83;1.32;;;;;;;19.90;28.64;100386.05;1786014;79;21532;-53
2022/05/03 07:49:29;;;;;;;4.67;1.40;;;;;;;19.97;29.26;100386.95;1786926;78;21147;-53
2022/05/03 07:51:55;;;;;;;3.65;1.32;;;;;;;20.09;28.88;100389.51;1786205;79;21096;-53
2022/05/03 07:54:22;;;;;;;3.95;1.60;;;;;;;20.13;28.54;100389.44;1782213;80;21244;-53
2022/05/03 07:56:48;;;;;;;6.00;1.70;;;;;;;20.18;28.44;100383.55;1762741;80;21007;-52
2022/05/03 07:59:15;;;;;;;4.33;1.52;;;;;;;20.25;29.01;100380.97;1758983;80;21053;-52
2022/05/03 08:01:42;;;;;;;4.65;1.77;;;;;;;20.33;28.33;100381.69;1766570;80;21129;-52
2022/05/03 08:04:09;;;;;;;3.90;1.17;;;;;;;20.35;27.92;100378.31;1773958;80;21078;-53
2022/05/03 08:06:36;;;;;;;3.80;1.25;;;;;;;20.32;28.18;100376.52;1764356;80;21153;-52
2022/05/03 08:09:03;;;;;;;3.20;1.17;;;;;;;20.35;28.49;100370.30;1764989;80;21113;-53
2022/05/03 08:11:30;;;;;;;4.10;1.32;;;;;;;20.39;28.04;100372.93;1769742;80;21054;-53
2022/05/03 08:13:56;;;;;;;3.22;1.27;;;;;;;20.47;27.74;100375.16;1787668;79;21057;-53
2022/05/03 08:16:23;;;;;;;2.98;1.15;;;;;;;20.54;28.17;100372.05;1786844;79;21092;-53
2022/05/03 08:18:50;;;;;;;5.00;1.80;;;;;;;20.60;28.24;100376.13;1786322;79;21140;-53
2022/05/03 08:21:17;;;;;;;4.20;1.62;;;;;;;20.64;27.46;100374.45;1773242;80;21010;-54
2022/05/03 08:23:44;;;;;;;4.20;1.40;;;;;;;20.59;27.31;100376.32;1768431;80;21050;-53
2022/05/03 08:26:11;;;;;;;4.42;1.40;;;;;;;20.53;27.19;100370.41;1775484;80;21078;-53
2022/05/03 08:28:38;;;;;;;3.85;1.30;;;;;;;20.48;27.99;100366.95;1775858;80;21055;-53
2022/05/03 08:31:04;;;;;;;5.10;1.70;;;;;;;20.41;28.31;100367.40;1771765;80;21278;-53
2022/05/03 08:33:33;;;;;;;3.47;1.40;;;;;;;20.30;27.85;100370.03;1776315;80;21062;-53
2022/05/03 08:36:00;;;;;;;3.62;1.65;;;;;;;20.20;28.25;100357.47;1773902;80;21066;-54
2022/05/03 08:43:58;;;;;;;5.75;1.92;;;;;;;20.22;28.34;100358.11;1777285;80;21334;-54
2022/05/03 08:46:25;;;;;;;3.87;1.35;;;;;;;20.24;28.31;100354.77;1774816;80;21065;-53
2022/05/03 08:49:00;;;;;;;5.33;1.57;;;;;;;20.28;28.78;100355.22;1772309;80;21042;-53
2022/05/03 08:51:29;;;;;;;4.03;1.27;;;;;;;20.30;27.36;100352.66;1771471;80;21015;-54
2022/05/03 08:53:55;;;;;;;6.53;1.60;;;;;;;20.33;27.46;100348.80;1780354;80;21121;-53
2022/05/03 08:56:22;;;;;;;4.45;1.27;;;;;;;20.33;27.48;100356.30;1771485;79;21153;-54
2022/05/03 08:58:49;;;;;;;3.00;1.20;;;;;;;20.32;27.54;100352.48;1775371;80;21037;-54
2022/05/03 09:01:15;;;;;;;4.00;1.35;;;;;;;20.32;27.13;100350.62;1771536;80;21042;-53
2022/05/03 09:03:42;;;;;;;3.08;1.10;;;;;;;20.31;27.17;100356.15;1772055;80;21476;-53
2022/05/03 09:06:09;;;;;;;3.22;1.25;;;;;;;20.30;27.94;100346.50;1766882;80;21576;-53
2022/05/03 09:08:37;;;;;;;3.37;1.17;;;;;;;20.32;26.67;100347.95;1767361;80;21060;-53
2022/05/03 09:11:16;;;;;;;4.20;1.32;;;;;;;20.33;25.78;100339.45;1773402;80;21097;-53
2022/05/03 09:13:43;;;;;;;4.20;1.27;;;;;;;20.32;25.95;100337.27;1775059;80;21045;-53
2022/05/03 09:16:16;;;;;;;3.60;1.47;;;;;;;20.38;26.53;100329.02;1776944;80;21552;-53
2022/05/03 09:18:45;;;;;;;6.40;1.75;;;;;;;20.46;25.88;100323.56;1774999;80;21129;-53
2022/05/03 09:24:12;;;;;;;4.45;1.70;;;;;;;20.59;26.97;100315.69;1746761;80;21557;-53
2022/05/03 09:26:40;;;;;;;4.10;1.30;;;;;;;20.70;26.83;100313.55;1759231;80;21227;-53
2022/05/03 09:29:11;;;;;;;3.33;1.20;;;;;;;20.76;26.86;100298.91;1768369;80;21051;-53
2022/05/03 09:31:47;;;;;;;3.52;1.37;;;;;;;20.88;28.02;100295.21;1768034;80;21101;-52
2022/05/03 09:34:25;;;;;;;3.20;1.27;;;;;;;21.02;28.25;100298.00;1770798;80;21080;-51
2022/05/03 09:36:56;;;;;;;3.17;1.10;;;;;;;21.14;26.39;100287.89;1766940;80;21061;-52
2022/05/03 09:39:27;;;;;;;4.37;1.30;;;;;;;21.27;26.73;100272.97;1772394;80;21062;-52
2022/05/03 09:42:10;;;;;;;4.90;1.60;;;;;;;21.42;26.10;100276.88;1775333;80;21092;-52
2022/05/03 09:44:52;;;;;;;4.40;1.62;;;;;;;21.54;25.60;100273.17;1776108;79;21043;-51
2022/05/03 09:47:22;;;;;;;3.12;1.30;;;;;;;21.60;25.97;100261.16;1765100;80;21962;-53
2022/05/03 09:49:49;;;;;;;3.60;1.30;;;;;;;21.71;25.34;100265.11;1771886;80;21562;-52
2022/05/03 09:52:35;;;;;;;5.17;1.67;;;;;;;21.77;25.55;100261.65;1770408;80;21514;-52
2022/05/03 09:55:08;;;;;;;3.52;1.40;;;;;;;21.87;25.65;100257.23;1744572;80;21046;-52
2022/05/03 09:57:36;;;;;;;4.78;1.55;;;;;;;21.98;24.48;100266.56;1769600;80;21043;-53
2022/05/03 10:00:09;;;;;;;6.72;1.50;;;;;;;21.99;24.74;100263.69;1767993;80;21081;-52
2022/05/03 10:02:43;;;;;;;3.30;1.40;;;;;;;21.98;24.86;100249.15;1767262;79;21517;-52
2022/05/03 10:05:13;;;;;;;2.72;1.20;;;;;;;22.02;25.43;100241.01;1764667;81;21106;-53
2022/05/03 10:07:46;;;;;;;4.17;1.60;;;;;;;22.11;25.61;100248.34;1786113;78;20998;-51
2022/05/03 10:10:10;;;;;;;4.00;1.60;;;;;;;22.15;25.48;100252.29;1782228;79;21068;-52
2022/05/03 10:12:37;;;;;;;3.87;1.62;;;;;;;22.15;25.22;100233.53;1787980;78;21122;-52
2022/05/03 10:15:05;;;;;;;3.75;1.32;;;;;;;22.19;25.45;100238.78;1779348;80;21446;-52
2022/05/03 10:20:46;;;;;;;9.67;2.37;;;;;;;22.22;25.29;100233.02;1769565;80;21439;-52
2022/05/03 10:23:30;;;;;;;3.87;1.70;;;;;;;22.29;25.87;100231.73;1786081;78;21300;-52
2022/05/03 10:26:00;;;;;;;7.62;1.85;;;;;;;22.30;24.11;100218.12;1769291;80;21123;-53
2022/05/03 10:29:09;;;;;;;3.25;1.30;;;;;;;22.30;24.03;100215.45;1770218;80;21101;-52
2022/05/03 10:32:06;;;;;;;6.28;1.60;;;;;;;22.35;24.16;100211.64;1757269;80;21019;-52
2022/05/03 10:34:56;;;;;;;3.95;1.40;;;;;;;22.47;24.79;100200.31;1754177;80;20995;-53
2022/05/03 10:37:34;;;;;;;4.55;1.77;;;;;;;22.63;24.26;100199.91;1749897;80;21005;-53
2022/05/03 10:40:09;;;;;;;5.42;1.62;;;;;;;22.69;23.45;100195.05;1748536;80;21094;-53
2022/05/03 10:42:36;;;;;;;4.75;1.70;;;;;;;22.66;23.53;100202.16;1764598;80;21062;-52
2022/05/03 10:45:13;;;;;;;7.22;1.67;;;;;;;22.64;24.00;100201.54;1768478;80;21101;-53
2022/05/03 10:47:54;;;;;;;6.10;1.60;;;;;;;22.70;23.59;100195.36;1763492;80;21074;-52
2022/05/03 10:50:31;;;;;;;6.37;1.72;;;;;;;22.68;23.47;100184.02;1768589;80;21034;-53
2022/05/03 10:53:06;;;;;;;4.50;1.70;;;;;;;22.63;24.02;100193.20;1765991;80;21205;-53
2022/05/03 10:55:40;;;;;;;4.12;1.67;;;;;;;22.61;23.96;100186.70;1763343;80;21065;-52
2022/05/03 10:58:19;;;;;;;5.72;1.87;;;;;;;22.67;23.92;100174.84;1768016;80;21448;-52
2022/05/03 11:01:14;;;;;;;3.62;1.52;;;;;;;22.79;24.74;100171.30;1758479;80;21070;-53
2022/05/03 11:03:59;;;;;;;3.72;1.52;;;;;;;22.92;23.41;100179.05;1769687;80;21034;-52
2022/05/03 11:06:31;;;;;;;5.28;1.85;;;;;;;22.93;23.81;100165.92;1770525;80;21156;-53
2022/05/03 11:11:47;;;;;;;5.00;2.08;;;;;;;23.10;23.68;100159.61;1774873;80;21094;-53
2022/05/03 11:14:24;;;;;;;4.22;1.80;;;;;;;23.09;23.67;100150.75;1775030;80;21071;-52
2022/05/03 11:17:06;;;;;;;5.58;1.40;;;;;;;23.13;24.18;100159.19;1760740;79;21129;-51
2022/05/03 11:19:36;;;;;;;4.08;1.50;;;;;;;23.09;23.69;100151.27;1761098;80;22077;-53
2022/05/03 11:22:10;;;;;;;8.60;1.60;;;;;;;22.99;24.22;100147.65;1759368;80;20970;-53
2022/05/03 11:24:43;;;;;;;3.80;1.67;;;;;;;22.92;24.56;100148.19;1761393;80;21062;-53
2022/05/03 11:27:10;;;;;;;5.40;1.57;;;;;;;22.89;24.90;100140.55;1750659;80;21088;-53
2022/05/03 11:29:42;;;;;;;5.15;1.82;;;;;;;22.90;24.64;100136.85;1745030;82;21074;-53
2022/05/03 11:32:09;;;;;;;3.62;1.50;;;;;;;22.95;24.62;100138.39;1759178;80;21089;-53
2022/05/03 11:34:37;;;;;;;6.22;2.10;;;;;;;22.98;24.28;100133.91;1745713;80;21017;-53
2022/05/03 11:37:07;;;;;;;4.22;1.62;;;;;;;23.00;24.57;100133.21;1748148;79;21470;-51
2022/05/03 11:39:36;;;;;;;4.47;1.67;;;;;;;23.03;24.49;100128.73;1759626;80;21079;-54
2022/05/03 11:42:08;;;;;;;4.60;1.82;;;;;;;23.03;23.85;100126.05;1766833;80;21085;-52
2022/05/03 11:44:43;;;;;;;4.35;1.70;;;;;;;22.96;24.12;100123.92;1747685;80;21112;-52
2022/05/03 11:47:09;;;;;;;3.75;2.05;;;;;;;22.92;24.42;100116.81;1741267;79;21041;-53
2022/05/03 11:49:36;;;;;;;4.45;1.92;;;;;;;22.97;24.38;100114.84;1762738;81;21040;-53
2022/05/03 11:57:38;;;;;;;4.85;2.27;;;;;;;23.04;23.50;100103.56;1753891;80;21229;-53
2022/05/03 12:00:07;;;;;;;4.37;2.15;;;;;;;23.12;23.34;100111.94;1744574;80;21054;-52
2022/05/03 12:02:36;;;;;;;2.92;1.27;;;;;;;23.16;23.73;100102.42;1755069;80;21022;-53
2022/05/03 12:05:11;;;;;;;3.45;1.60;;;;;;;23.23;23.39;100113.94;1759824;80;21573;-53
2022/05/03 12:07:49;;;;;;;5.60;2.22;;;;;;;23.21;23.49;100109.84;1781470;78;21060;-53
2022/05/03 12:10:37;;;;;;;6.50;2.02;;;;;;;23.08;23.44;100099.47;1787063;79;21092;-52
2022/05/03 12:13:19;;;;;;;5.40;1.85;;;;;;;22.94;23.74;100096.48;1784235;79;21568;-53
2022/05/03 12:15:58;;;;;;;5.87;2.02;;;;;;;22.80;23.84;100097.86;1759197;81;21028;-53
2022/05/03 12:18:44;;;;;;;4.03;1.80;;;;;;;22.73;24.07;100095.72;1785428;78;21563;-53
2022/05/03 12:21:17;;;;;;;4.35;1.75;;;;;;;22.69;23.97;100087.77;1794619;80;21037;-53
2022/05/03 12:23:51;;;;;;;4.12;1.67;;;;;;;22.61;24.25;100086.15;1790645;78;21135;-54
2022/05/03 12:26:38;;;;;;;5.85;1.85;;;;;;;22.60;24.54;100082.34;1792738;78;21076;-53
2022/05/03 12:29:04;;;;;;;;;;;;;;;22.63;23.82;100073.88;1781314;79;21065;-53
2022/05/03 12:31:40;;;;;;;4.20;1.87;;;;;;;22.61;23.74;100073.23;1778202;79;20172;-53
2022/05/03 12:34:13;;;;;;;4.25;1.82;;;;;;;22.53;24.42;100064.11;1778887;79;21117;-54
2022/05/03 12:36:44;;;;;;;3.92;1.70;;;;;;;22.54;24.06;100065.20;1781279;80;21260;-54
2022/05/03 12:39:18;;;;;;;4.17;2.00;;;;;;;22.54;24.47;100071.09;1779550;79;21695;-54